Time;durP1;ratioP1;P1;durP2;ratioP2;P2;SDS_P1;SDS_P2;PMS_P1;PMS_P2;Temp;Humidity;BMP_temperature;BMP_pressure;BME280_temperature;BME280_humidity;BME280_pressure;Samples;Min_cycle;Max_cycle;Signal;HPM_P1;HPM_P2
2024/03/13 00:00:13;;;;;;;;;4.75;2.25;;;;;13.66;87.70;101146.56;5067732;28;45389;-58
2024/03/13 00:02:41;;;;;;;;;4.25;3.00;;;;;13.67;87.66;101143.03;5075154;28;45527;-59
2024/03/13 00:05:10;;;;;;;;;5.25;3.25;;;;;13.65;87.41;101137.81;5062722;28;45741;-59
2024/03/13 00:07:37;;;;;;;;;4.00;3.25;;;;;13.70;87.62;101150.78;5065330;28;45429;-58
2024/03/13 00:10:03;;;;;;;;;4.75;4.00;;;;;13.69;87.02;101141.19;5064685;27;45367;-59
2024/03/13 00:12:28;;;;;;;;;4.00;3.00;;;;;13.71;87.10;101149.03;5072187;28;45903;-59
2024/03/13 00:14:56;;;;;;;;;17.75;13.50;;;;;13.72;87.26;101148.13;5064022;28;45257;-59
2024/03/13 00:17:22;;;;;;;;;9.00;6.50;;;;;13.70;87.17;101142.91;5069610;28;45345;-59
2024/03/13 00:19:48;;;;;;;;;2.75;2.50;;;;;13.73;87.07;101155.97;5077149;27;45370;-60
2024/03/13 00:22:18;;;;;;;;;4.75;2.75;;;;;13.73;86.82;101153.31;5081410;27;45404;-59
2024/03/13 00:24:46;;;;;;;;;4.25;2.00;;;;;13.72;87.09;101148.97;5075688;28;45433;-59
2024/03/13 00:27:12;;;;;;;;;6.00;2.00;;;;;13.74;86.96;101157.69;5079727;27;45441;-59
2024/03/13 00:29:38;;;;;;;;;3.25;2.50;;;;;13.75;86.54;101150.66;5075990;27;47209;-60
2024/03/13 00:32:04;;;;;;;;;40.00;34.00;;;;;13.74;86.55;101149.81;5069341;28;45460;-59
2024/03/13 00:34:30;;;;;;;;;16.25;14.00;;;;;13.74;86.58;101149.81;5076820;27;45789;-60
2024/03/13 00:36:55;;;;;;;;;4.50;2.50;;;;;13.74;86.38;101148.91;5074379;27;45383;-59
2024/03/13 00:39:22;;;;;;;;;2.75;2.75;;;;;13.74;86.43;101149.81;5079658;27;45544;-59
2024/03/13 00:41:47;;;;;;;;;2.75;2.00;;;;;13.74;86.37;101152.44;5066544;27;45477;-59
2024/03/13 00:44:13;;;;;;;;;3.00;3.00;;;;;13.72;86.79;101145.47;5075560;27;45390;-59
2024/03/13 00:46:40;;;;;;;;;3.00;2.00;;;;;13.71;86.76;101143.78;5073469;27;45379;-59
2024/03/13 00:49:07;;;;;;;;;2.75;2.75;;;;;13.72;86.70;101151.59;5068744;27;45533;-59
2024/03/13 00:51:33;;;;;;;;;5.75;2.00;;;;;13.72;86.66;101150.75;5073507;27;46484;-59
2024/03/13 00:54:01;;;;;;;;;1.00;1.00;;;;;13.72;86.44;101150.75;5071658;27;45647;-59
2024/03/13 00:56:29;;;;;;;;;5.00;3.00;;;;;13.72;86.52;101151.59;5083327;27;45284;-59
2024/03/13 00:58:55;;;;;;;;;3.00;3.00;;;;;13.71;86.55;101151.69;5081121;27;45521;-59
2024/03/13 01:01:21;;;;;;;;;3.75;2.75;;;;;13.73;86.68;101157.75;5070529;28;46121;-59
2024/03/13 01:03:46;;;;;;;;;5.50;2.00;;;;;13.73;86.48;101157.75;5083726;27;45455;-58
2024/03/13 01:06:11;;;;;;;;;5.00;2.00;;;;;13.72;86.41;101150.75;5070687;27;45349;-58
2024/03/13 01:08:38;;;;;;;;;2.00;2.00;;;;;13.73;86.46;101160.38;5076157;27;45450;-60
2024/03/13 01:11:04;;;;;;;;;7.25;2.25;;;;;13.72;86.40;101156.00;5070875;28;47301;-58
2024/03/13 01:13:29;;;;;;;;;3.50;3.00;;;;;13.70;86.93;101157.84;5079752;28;45757;-58
2024/03/13 01:15:55;;;;;;;;;4.00;2.75;;;;;13.72;86.83;101164.75;5067354;28;45511;-57
2024/03/13 01:18:20;;;;;;;;;3.50;3.50;;;;;13.73;86.75;101160.38;5077453;27;45284;-59
2024/03/13 01:20:48;;;;;;;;;3.50;3.00;;;;;13.71;86.83;101155.16;5064510;27;45946;-60
2024/03/13 01:23:15;;;;;;;;;5.75;3.00;;;;;13.72;87.20;101159.47;5083451;27;58563;-60
2024/03/13 01:25:44;;;;;;;;;3.50;2.75;;;;;13.73;87.06;101165.63;5069830;28;45382;-59
2024/03/13 01:28:10;;;;;;;;;5.00;4.00;;;;;13.74;87.32;101172.59;5079040;27;45394;-59
2024/03/13 01:30:35;;;;;;;;;3.75;3.25;;;;;13.74;87.04;101170.84;5064323;28;46076;-60
2024/03/13 01:33:00;;;;;;;;;3.00;3.00;;;;;13.74;87.20;101168.22;5073968;28;73158;-59
2024/03/13 01:35:26;;;;;;;;;4.25;3.00;;;;;13.74;87.06;101165.59;5067899;28;45304;-59
2024/03/13 01:38:01;;;;;;;;;3.50;3.50;;;;;13.76;87.23;101166.38;5063707;27;71485;-59
2024/03/13 01:57:13;;;;;;;;;4.50;4.00;;;;;13.75;86.81;101162.03;5064941;28;45259;-59
2024/03/13 01:59:49;;;;;;;;;8.50;5.00;;;;;13.73;86.99;101160.38;5076463;27;45355;-59
2024/03/13 02:02:27;;;;;;;;;5.50;4.25;;;;;13.71;87.25;101157.78;5080380;27;46634;-60
2024/03/13 02:04:53;;;;;;;;;3.50;3.00;;;;;13.70;87.19;101163.94;5087286;27;45384;-60
2024/03/13 02:07:22;;;;;;;;;3.00;3.00;;;;;13.67;86.63;101159.66;5077383;27;45437;-60
2024/03/13 02:09:49;;;;;;;;;5.00;3.00;;;;;13.68;86.94;101161.34;5079324;27;45708;-60
2024/03/13 02:12:14;;;;;;;;;4.50;3.00;;;;;13.64;87.26;101157.13;5076706;27;45541;-60
2024/03/13 02:14:40;;;;;;;;;3.00;3.00;;;;;13.66;86.83;101157.06;5079934;27;45419;-59
2024/03/13 02:17:06;;;;;;;;;7.25;4.25;;;;;13.65;86.65;101153.59;5069371;28;63987;-60
2024/03/13 02:19:36;;;;;;;;;6.50;4.00;;;;;13.60;86.84;101152.88;5071802;27;45473;-60
2024/03/13 02:22:04;;;;;;;;;6.50;3.50;;;;;13.57;86.52;101152.97;5075065;27;45578;-60
2024/03/13 02:24:29;;;;;;;;;2.75;2.25;;;;;13.55;87.06;101151.31;5079982;27;45319;-60
2024/03/13 02:26:55;;;;;;;;;5.75;4.25;;;;;13.54;87.10;101146.97;5069911;27;45407;-60
2024/03/13 02:29:20;;;;;;;;;4.75;3.00;;;;;13.50;86.69;101140.09;5075974;27;45416;-60
2024/03/13 02:31:46;;;;;;;;;6.25;4.00;;;;;13.42;86.49;101135.06;5072515;28;45478;-60
2024/03/13 02:34:13;;;;;;;;;5.50;3.75;;;;;13.39;86.99;101145.69;5062118;27;45477;-60
2024/03/13 02:36:38;;;;;;;;;6.00;2.00;;;;;13.36;86.60;101146.63;5069806;27;45237;-60
2024/03/13 02:39:04;;;;;;;;;4.00;3.00;;;;;13.35;86.82;101150.19;5063618;27;45450;-60
2024/03/13 02:41:29;;;;;;;;;4.50;3.75;;;;;13.31;86.80;101143.28;5065587;28;46477;-60
2024/03/13 02:43:57;;;;;;;;;4.75;4.00;;;;;13.27;86.85;101145.13;5071569;28;70930;-60
2024/03/13 02:46:23;;;;;;;;;6.25;4.75;;;;;13.26;87.11;101139.91;5070197;27;45398;-60
2024/03/13 02:48:48;;;;;;;;;3.50;2.75;;;;;13.24;87.06;101141.75;5070644;27;45690;-60
2024/03/13 02:51:13;;;;;;;;;8.00;4.75;;;;;13.23;86.86;101145.28;5069264;27;47261;-60
2024/03/13 02:53:39;;;;;;;;;6.00;3.25;;;;;13.23;86.78;101143.50;5079968;27;45406;-59
2024/03/13 02:56:07;;;;;;;;;9.50;4.25;;;;;13.22;86.62;101136.53;5065640;27;66756;-59
2024/03/13 02:58:32;;;;;;;;;5.00;3.25;;;;;13.19;86.90;101139.28;5077281;27;45582;-60
2024/03/13 03:00:58;;;;;;;;;6.25;3.75;;;;;13.18;86.87;101139.31;5077383;27;76423;-60
2024/03/13 03:03:24;;;;;;;;;4.00;3.00;;;;;13.16;86.87;101138.50;5075533;27;45698;-59
2024/03/13 03:05:49;;;;;;;;;5.75;3.25;;;;;13.14;86.76;101132.41;5072622;28;45394;-59
2024/03/13 03:08:14;;;;;;;;;4.75;3.00;;;;;13.09;86.35;101141.31;5058021;27;45601;-60
2024/03/13 03:10:40;;;;;;;;;4.00;2.75;;;;;13.05;86.91;101134.44;5064181;28;75469;-59
2024/03/13 03:13:06;;;;;;;;;5.50;4.00;;;;;13.04;86.68;101142.38;5070278;28;45216;-59
2024/03/13 03:15:34;;;;;;;;;4.00;3.50;;;;;13.00;86.51;101141.59;5061017;28;45358;-60
2024/03/13 03:18:00;;;;;;;;;5.75;3.25;;;;;12.99;86.67;101146.91;5066443;27;45435;-59
2024/03/13 03:20:26;;;;;;;;;4.00;3.50;;;;;12.96;86.79;101139.09;5071353;27;46931;-59
2024/03/13 03:22:53;;;;;;;;;4.00;3.25;;;;;12.91;86.38;101148.00;5061076;28;45280;-57
2024/03/13 03:25:18;;;;;;;;;8.25;3.00;;;;;12.87;86.73;101145.50;5062449;28;45287;-59
2024/03/13 03:27:44;;;;;;;;;4.00;3.00;;;;;12.85;86.85;101153.41;5075272;28;45567;-58
2024/03/13 03:30:11;;;;;;;;;6.00;3.75;;;;;12.83;86.84;101146.50;5074454;28;46121;-60
2024/03/13 03:32:37;;;;;;;;;6.50;3.50;;;;;12.82;86.69;101150.03;5078679;27;45542;-60
2024/03/13 03:35:04;;;;;;;;;6.50;3.00;;;;;12.82;86.97;101150.03;5068488;28;47338;-59
2024/03/13 03:37:30;;;;;;;;;6.00;4.00;;;;;12.86;86.70;101154.28;5061276;28;45460;-60
2024/03/13 03:39:56;;;;;;;;;5.25;4.50;;;;;12.88;86.40;101147.22;5069070;27;46064;-59
2024/03/13 03:42:24;;;;;;;;;4.25;3.25;;;;;12.90;86.63;101148.88;5080994;27;45409;-60
2024/03/13 03:44:49;;;;;;;;;4.00;4.00;;;;;12.93;86.82;101154.97;5062812;28;45461;-60
2024/03/13 03:47:15;;;;;;;;;5.00;3.50;;;;;12.96;86.67;101150.50;5064248;28;45581;-60
2024/03/13 03:49:41;;;;;;;;;8.50;4.00;;;;;12.97;86.23;101146.94;5081093;27;47612;-61
2024/03/13 03:52:07;;;;;;;;;3.50;3.00;;;;;12.99;86.10;101150.38;5067714;28;45382;-60
2024/03/13 03:54:34;;;;;;;;;4.25;2.75;;;;;12.98;85.82;101148.69;5072300;28;45651;-60
2024/03/13 03:56:59;;;;;;;;;5.00;4.75;;;;;12.95;86.12;101146.13;5060001;27;45368;-59
2024/03/13 03:59:25;;;;;;;;;6.75;3.00;;;;;12.98;85.53;101159.19;5064966;27;50607;-60
2024/03/13 04:01:50;;;;;;;;;5.25;4.00;;;;;12.99;85.87;101153.00;5061853;28;71593;-60
2024/03/13 04:04:16;;;;;;;;;4.75;3.75;;;;;13.01;85.64;101156.44;5059427;28;45287;-60
2024/03/13 04:06:41;;;;;;;;;3.25;3.25;;;;;13.02;85.83;101146.81;5058002;28;72711;-60
2024/03/13 04:09:14;;;;;;;;;5.25;4.00;;;;;13.04;85.51;101152.88;5073347;27;46205;-60
2024/03/13 04:11:43;;;;;;;;;7.00;3.50;;;;;13.05;85.30;101159.84;5074356;27;45948;-60
2024/03/13 04:14:10;;;;;;;;;4.50;3.25;;;;;13.06;85.43;101154.53;5060240;27;45262;-59
2024/03/13 04:16:35;;;;;;;;;4.00;3.00;;;;;13.07;85.06;101150.16;5065100;28;45448;-61
2024/03/13 04:19:00;;;;;;;;;5.50;4.00;;;;;13.08;85.00;101147.50;5077594;27;46736;-59
2024/03/13 04:21:27;;;;;;;;;3.50;2.50;;;;;13.10;85.23;101150.94;5074826;28;50453;-60
2024/03/13 04:23:53;;;;;;;;;9.50;3.50;;;;;13.11;85.08;101143.91;5070842;27;45489;-60
2024/03/13 04:26:18;;;;;;;;;5.25;4.00;;;;;13.10;84.82;101153.56;5065781;27;45452;-60
2024/03/13 04:28:44;;;;;;;;;5.50;4.00;;;;;13.11;85.05;101146.53;5067867;27;46208;-60
2024/03/13 04:31:13;;;;;;;;;5.75;4.75;;;;;13.11;84.50;101150.00;5072561;27;59617;-59
2024/03/13 04:33:39;;;;;;;;;5.00;3.00;;;;;13.12;84.54;101153.50;5069467;28;45442;-58
2024/03/13 04:36:04;;;;;;;;;4.00;2.25;;;;;13.14;84.84;101158.69;5070687;27;45577;-60
2024/03/13 04:38:29;;;;;;;;;4.00;4.00;;;;;13.13;84.64;101151.75;5070738;27;46557;-58
2024/03/13 04:40:55;;;;;;;;;8.00;4.00;;;;;13.13;84.55;101154.38;5076759;27;62863;-58
2024/03/13 04:43:20;;;;;;;;;5.25;3.50;;;;;13.12;84.03;101156.16;5070379;28;45331;-60
2024/03/13 04:45:45;;;;;;;;;6.00;4.00;;;;;13.13;84.44;101157.00;5072454;28;45412;-59
2024/03/13 04:48:13;;;;;;;;;4.25;3.50;;;;;13.14;84.06;101162.22;5066726;27;45805;-59
2024/03/13 04:50:38;;;;;;;;;3.25;2.00;;;;;13.15;83.98;101160.44;5072201;28;45880;-61
2024/03/13 04:53:03;;;;;;;;;6.00;4.25;;;;;13.15;84.48;101163.91;5078661;27;45285;-61
2024/03/13 04:55:29;;;;;;;;;4.25;4.00;;;;;13.15;83.81;101157.81;5077620;27;71158;-59
2024/03/13 04:57:55;;;;;;;;;4.50;2.75;;;;;13.15;84.04;101166.53;5073278;27;46769;-60
2024/03/13 05:00:21;;;;;;;;;6.00;3.75;;;;;13.15;83.70;101161.28;5066488;28;45289;-61
2024/03/13 05:02:46;;;;;;;;;5.00;4.00;;;;;13.15;84.11;101171.78;5067180;27;45411;-60
2024/03/13 05:05:12;;;;;;;;;7.25;2.00;;;;;13.15;84.12;101169.16;5072827;27;46501;-59
2024/03/13 05:07:39;;;;;;;;;8.00;5.00;;;;;13.14;83.64;101162.22;5069352;27;45693;-60
2024/03/13 05:10:06;;;;;;;;;6.75;3.00;;;;;13.13;83.71;101159.63;5068581;27;45255;-60
2024/03/13 05:12:36;;;;;;;;;6.00;3.50;;;;;13.14;83.60;101158.69;5066221;27;45331;-59
2024/03/13 05:15:05;;;;;;;;;2.50;2.00;;;;;13.11;83.91;101164.91;5078477;27;45380;-60
2024/03/13 05:17:30;;;;;;;;;5.25;2.75;;;;;13.10;83.80;101160.56;5074193;27;46181;-60
2024/03/13 05:19:58;;;;;;;;;4.00;3.00;;;;;13.10;83.72;101155.31;5070202;27;45271;-60
2024/03/13 05:22:29;;;;;;;;;3.75;3.00;;;;;13.08;83.68;101157.13;5061400;28;45523;-59
2024/03/13 05:24:54;;;;;;;;;4.75;2.75;;;;;13.09;83.75;101157.06;5072825;27;45701;-60
2024/03/13 05:27:19;;;;;;;;;3.50;3.25;;;;;13.09;83.42;101158.84;5075398;27;45682;-60
2024/03/13 05:29:45;;;;;;;;;3.00;1.75;;;;;13.09;83.30;101156.22;5065695;27;73175;-59
2024/03/13 05:32:10;;;;;;;;;0.75;0.25;;;;;13.08;83.67;101157.13;5064606;27;68082;-59
2024/03/13 05:34:37;;;;;;;;;3.00;2.25;;;;;13.07;83.56;101158.91;5076497;28;58739;-60
2024/03/13 05:37:03;;;;;;;;;3.25;2.25;;;;;13.07;83.64;101163.31;5067039;27;45453;-59
2024/03/13 05:39:29;;;;;;;;;4.25;3.00;;;;;13.07;83.14;101164.16;5081949;27;45499;-58
2024/03/13 05:41:54;;;;;;;;;2.25;2.25;;;;;13.07;83.11;101168.56;5077088;27;45472;-59
2024/03/13 05:44:19;;;;;;;;;3.00;2.25;;;;;13.06;83.12;101167.66;5061782;27;73189;-59
2024/03/13 05:46:45;;;;;;;;;5.00;2.75;;;;;13.06;83.20;101169.44;5067806;28;47734;-58
2024/03/13 05:49:11;;;;;;;;;4.00;3.00;;;;;13.06;83.51;101172.06;5068778;27;68790;-61
2024/03/13 05:51:36;;;;;;;;;6.00;3.00;;;;;13.04;83.05;101176.53;5082321;28;45322;-58
2024/03/13 05:54:02;;;;;;;;;5.75;2.75;;;;;13.03;83.22;101175.66;5071232;28;45333;-59
2024/03/13 05:56:28;;;;;;;;;6.25;2.75;;;;;13.01;83.25;101172.19;5079952;28;47505;-60
2024/03/13 05:58:53;;;;;;;;;3.25;2.50;;;;;13.02;83.55;101173.94;5070227;27;45578;-60
2024/03/13 06:01:22;;;;;;;;;6.25;3.00;;;;;13.04;83.46;101176.53;5070388;28;45268;-60
2024/03/13 06:03:49;;;;;;;;;4.00;3.00;;;;;13.05;83.00;101175.59;5071591;27;45480;-59
2024/03/13 06:06:15;;;;;;;;;2.50;2.50;;;;;13.05;83.18;101179.09;5077124;28;47579;-60
2024/03/13 06:08:40;;;;;;;;;2.50;2.00;;;;;13.06;82.97;101177.34;5061010;27;73170;-60
2024/03/13 06:11:05;;;;;;;;;2.00;1.75;;;;;13.05;82.78;101168.59;5064867;27;45304;-60
2024/03/13 06:13:31;;;;;;;;;3.75;3.00;;;;;13.05;82.78;101179.09;5073520;28;45346;-60
2024/03/13 06:15:56;;;;;;;;;3.75;3.00;;;;;13.05;83.04;101173.84;5064405;28;45489;-60
2024/03/13 06:18:23;;;;;;;;;3.00;2.75;;;;;13.06;82.94;101179.97;5077988;27;45374;-60
2024/03/13 06:20:48;;;;;;;;;4.75;3.00;;;;;13.07;82.62;101185.16;5073585;27;45415;-60
2024/03/13 06:23:16;;;;;;;;;7.75;3.00;;;;;13.08;83.02;101188.66;5073172;28;45193;-60
2024/03/13 06:25:45;;;;;;;;;2.25;2.00;;;;;13.08;82.71;101186.03;5062638;27;46149;-60
2024/03/13 06:30:54;;;;;;;;;3.75;1.00;;;;;13.08;82.76;101191.28;5070008;28;45383;-60
2024/03/13 06:33:19;;;;;;;;;5.25;3.00;;;;;13.07;82.75;101200.09;5061206;28;71959;-61
2024/03/13 06:35:45;;;;;;;;;4.00;3.75;;;;;13.08;82.23;101192.16;5064817;28;74525;-60
2024/03/13 06:38:10;;;;;;;;;5.75;3.00;;;;;13.09;82.62;101196.50;5067429;28;45500;-59
2024/03/13 06:40:37;;;;;;;;;4.00;4.00;;;;;13.11;82.77;101188.56;5068244;28;69326;-60
2024/03/13 06:43:03;;;;;;;;;6.50;4.00;;;;;13.12;82.56;101182.41;5057256;28;46048;-59
2024/03/13 06:45:28;;;;;;;;;5.75;3.75;;;;;13.15;82.46;101194.59;5061063;28;46315;-60
2024/03/13 06:47:53;;;;;;;;;4.00;2.25;;;;;13.17;82.66;101195.41;5069408;27;72004;-60
2024/03/13 06:50:19;;;;;;;;;5.75;3.25;;;;;13.20;82.27;101201.41;5073447;27;63970;-61
2024/03/13 06:52:44;;;;;;;;;4.00;3.25;;;;;13.20;82.16;101208.47;5062809;28;62192;-63
2024/03/13 06:55:09;;;;;;;;;6.25;4.00;;;;;13.22;82.22;101209.25;5066088;28;74623;-62
2024/03/13 06:57:35;;;;;;;;;7.00;5.00;;;;;13.24;82.32;101200.44;5064817;28;45416;-64
2024/03/13 07:00:00;;;;;;;;;6.25;4.25;;;;;13.26;82.06;101206.50;5074313;27;45446;-60
2024/03/13 07:02:28;;;;;;;;;9.00;4.00;;;;;13.27;82.13;101210.00;5067173;28;61164;-62
2024/03/13 07:04:53;;;;;;;;;5.25;3.75;;;;;13.28;82.42;101209.94;5061803;28;45452;-65
2024/03/13 07:07:19;;;;;;;;;5.00;4.00;;;;;13.32;81.79;101202.00;5073982;27;45421;-60
2024/03/13 07:09:44;;;;;;;;;4.25;4.00;;;;;13.35;82.13;101207.16;5072234;27;69142;-60
2024/03/13 07:12:11;;;;;;;;;4.25;4.25;;;;;13.36;82.10;101206.25;5066326;28;73254;-65
2024/03/13 07:14:36;;;;;;;;;4.25;4.00;;;;;13.38;82.00;101207.06;5078179;28;48065;-62
2024/03/13 07:17:02;;;;;;;;;6.00;4.50;;;;;13.38;81.66;101205.28;5072689;27;45386;-62
2024/03/13 07:19:28;;;;;;;;;8.00;5.00;;;;;13.40;81.72;101206.13;5069539;27;55570;-62
2024/03/13 07:21:54;;;;;;;;;7.50;4.00;;;;;13.41;81.58;101209.59;5073123;27;45437;-63
2024/03/13 07:24:20;;;;;;;;;7.00;5.00;;;;;13.42;81.51;101211.31;5067760;27;45480;-62
2024/03/13 07:26:45;;;;;;;;;7.00;5.75;;;;;13.43;81.35;101216.50;5069812;27;45389;-61
2024/03/13 07:29:10;;;;;;;;;6.25;3.25;;;;;13.45;81.03;101206.81;5058661;27;63744;-64
2024/03/13 07:31:39;;;;;;;;;7.25;3.00;;;;;13.48;81.28;101211.13;5074994;27;67640;-62
2024/03/13 07:34:05;;;;;;;;;6.00;4.25;;;;;13.51;80.96;101212.78;5069666;27;46539;-62
2024/03/13 07:36:30;;;;;;;;;7.00;5.00;;;;;13.54;80.99;101215.31;5069309;28;45710;-62
2024/03/13 07:38:59;;;;;;;;;9.50;4.00;;;;;13.56;80.91;101224.88;5076537;27;68407;-62
2024/03/13 07:41:24;;;;;;;;;4.00;2.00;;;;;13.59;80.33;101224.78;5070052;27;47308;-61
2024/03/13 07:43:49;;;;;;;;;5.50;3.50;;;;;13.62;80.34;101214.19;5070205;27;75402;-62
2024/03/13 07:46:15;;;;;;;;;5.50;3.00;;;;;13.65;80.25;101224.59;5068632;27;73109;-61
2024/03/13 07:48:41;;;;;;;;;5.25;4.50;;;;;13.68;80.39;101211.34;5068128;27;45366;-64
2024/03/13 07:51:07;;;;;;;;;4.25;3.00;;;;;13.71;80.03;101220.91;5071565;27;45529;-60
2024/03/13 07:53:36;;;;;;;;;4.00;3.00;;;;;13.74;79.57;101223.44;5062974;28;46275;-59
2024/03/13 07:56:02;;;;;;;;;7.00;4.00;;;;;13.78;79.96;101219.81;5068911;28;47037;-59
2024/03/13 07:58:27;;;;;;;;;6.75;4.50;;;;;13.80;79.42;101217.13;5078212;27;45458;-60
2024/03/13 08:00:53;;;;;;;;;4.25;3.50;;;;;13.85;79.17;101226.59;5064500;28;45280;-60
2024/03/13 08:03:18;;;;;;;;;5.00;4.00;;;;;13.92;78.99;101229.03;5078862;27;70160;-59
2024/03/13 08:05:44;;;;;;;;;4.25;2.00;;;;;13.95;78.68;101229.78;5067884;28;68567;-59
2024/03/13 08:08:10;;;;;;;;;5.00;3.75;;;;;14.00;78.43;101221.72;5061306;27;45593;-58
2024/03/13 08:10:37;;;;;;;;;4.75;3.75;;;;;14.03;78.35;101225.09;5066186;28;45292;-58
2024/03/13 08:13:05;;;;;;;;;5.00;4.00;;;;;14.08;78.25;101226.72;5059874;28;45439;-59
2024/03/13 08:15:31;;;;;;;;;3.50;2.00;;;;;14.10;77.36;101222.28;5061017;28;45975;-60
2024/03/13 08:17:56;;;;;;;;;7.00;4.50;;;;;14.18;77.74;101231.63;5079357;27;61011;-59
2024/03/13 08:20:22;;;;;;;;;3.75;3.00;;;;;14.24;77.50;101230.56;5072091;27;45411;-57
2024/03/13 08:22:47;;;;;;;;;6.50;3.00;;;;;14.27;76.67;101235.72;5068978;28;46899;-59
2024/03/13 08:25:20;;;;;;;;;7.75;3.75;;;;;14.32;76.79;101230.28;5067352;28;45470;-60
2024/03/13 08:27:48;;;;;;;;;2.00;2.00;;;;;14.38;76.55;101238.00;5059269;28;45411;-60
2024/03/13 08:30:17;;;;;;;;;2.50;2.25;;;;;14.42;76.36;101243.06;5071930;28;45311;-60
2024/03/13 08:32:49;;;;;;;;;4.00;4.00;;;;;14.49;76.33;101237.63;5065010;28;46157;-60
2024/03/13 08:35:15;;;;;;;;;4.00;2.00;;;;;14.52;75.44;101238.38;5064729;28;45679;-60
2024/03/13 08:37:43;;;;;;;;;3.00;2.00;;;;;14.56;75.01;101242.59;5062761;28;45681;-60
2024/03/13 08:40:11;;;;;;;;;3.00;2.00;;;;;14.61;75.20;101253.88;5067548;27;45530;-60
2024/03/13 08:42:45;;;;;;;;;3.50;2.00;;;;;14.68;74.93;101246.63;5082953;27;45343;-60
2024/03/13 08:45:10;;;;;;;;;2.00;2.00;;;;;14.82;74.45;101256.66;5075253;28;45362;-59
2024/03/13 08:47:38;;;;;;;;;3.00;3.00;;;;;14.91;74.27;101247.53;5062475;28;45498;-59
2024/03/13 08:50:04;;;;;;;;;2.25;2.00;;;;;14.99;73.85;101256.88;5066978;27;45177;-60
2024/03/13 08:52:29;;;;;;;;;2.00;2.00;;;;;15.09;73.62;101260.03;5066967;28;48783;-61
2024/03/13 08:54:55;;;;;;;;;4.00;2.25;;;;;15.21;73.27;101257.84;5074864;28;45422;-61
2024/03/13 08:57:20;;;;;;;;;4.00;2.75;;;;;15.33;72.81;101263.53;5061880;28;64752;-62
2024/03/13 08:59:47;;;;;;;;;2.00;2.00;;;;;15.41;72.22;101268.50;5074949;27;45698;-60
2024/03/13 09:02:12;;;;;;;;;3.50;2.00;;;;;15.41;71.62;101267.66;5062509;28;46262;-61
2024/03/13 09:04:37;;;;;;;;;3.00;1.00;;;;;15.35;71.54;101268.72;5065282;28;45346;-60
2024/03/13 09:07:03;;;;;;;;;4.00;2.00;;;;;15.32;71.25;101269.72;5070542;28;45617;-60
2024/03/13 09:09:28;;;;;;;;;1.25;1.25;;;;;15.30;71.57;101271.56;5074132;27;45398;-60
2024/03/13 09:11:54;;;;;;;;;2.25;2.00;;;;;15.26;71.17;101271.72;5069675;27;45321;-61
2024/03/13 09:14:20;;;;;;;;;2.00;2.00;;;;;15.24;71.22;101274.41;5067688;27;45344;-60
2024/03/13 09:16:48;;;;;;;;;3.00;2.00;;;;;15.22;70.84;101272.75;5065670;27;45342;-62
2024/03/13 09:19:13;;;;;;;;;4.25;1.00;;;;;15.23;71.23;101267.44;5068260;27;45734;-59
2024/03/13 09:21:39;;;;;;;;;4.75;1.75;;;;;15.25;70.88;101267.38;5079580;27;45355;-59
2024/03/13 09:24:06;;;;;;;;;2.25;2.25;;;;;15.30;71.01;101270.72;5069829;27;45291;-60
2024/03/13 09:26:38;;;;;;;;;4.00;2.25;;;;;15.35;70.58;101266.97;5068106;27;45316;-60
2024/03/13 09:29:04;;;;;;;;;2.50;1.25;;;;;15.40;70.46;101269.41;5068825;27;45521;-63
2024/03/13 09:31:29;;;;;;;;;5.25;2.00;;;;;15.45;70.20;101258.69;5078297;27;45539;-63
2024/03/13 09:33:55;;;;;;;;;5.25;2.25;;;;;15.48;69.98;101255.94;5064796;28;45227;-64
2024/03/13 09:36:20;;;;;;;;;3.50;2.00;;;;;15.52;70.02;101253.09;5066939;27;45433;-63
2024/03/13 09:38:45;;;;;;;;;3.25;2.00;;;;;15.54;69.50;101259.19;5073327;27;72934;-59
2024/03/13 09:41:14;;;;;;;;;1.00;1.00;;;;;15.53;68.86;101262.75;5095967;27;60871;-62
2024/03/13 09:43:39;;;;;;;;;1.00;1.00;;;;;15.56;68.87;101257.38;5067275;27;73110;-60
2024/03/13 09:46:09;;;;;;;;;1.25;1.00;;;;;15.64;68.30;101261.47;5068412;27;46482;-61
2024/03/13 09:48:37;;;;;;;;;1.00;1.00;;;;;15.68;68.60;101252.50;5072365;27;45477;-61
2024/03/13 09:51:04;;;;;;;;;3.00;2.00;;;;;15.72;67.61;101254.97;5069426;28;46960;-62
2024/03/13 09:53:30;;;;;;;;;5.25;1.50;;;;;15.77;67.19;101257.44;5076660;27;45488;-62
2024/03/13 09:55:55;;;;;;;;;2.00;2.00;;;;;15.79;66.63;101254.75;5077967;27;45416;-61
2024/03/13 09:58:21;;;;;;;;;1.25;1.25;;;;;15.92;66.70;101261.25;5064168;27;72469;-62
2024/03/13 10:00:46;;;;;;;;;2.75;2.00;;;;;16.06;66.79;101252.75;5067916;28;47021;-61
2024/03/13 10:03:27;;;;;;;;;5.50;3.00;;;;;16.20;66.76;101257.44;5077134;27;45416;-62
2024/03/13 10:06:12;;;;;;;;;6.25;3.50;;;;;16.32;66.66;101256.94;5072871;27;45494;-62
2024/03/13 10:08:40;;;;;;;;;2.00;2.00;;;;;16.34;65.96;101257.72;5071045;27;66793;-61
2024/03/13 10:11:06;;;;;;;;;15.50;9.50;;;;;16.29;65.64;101262.38;5069254;28;45388;-61
2024/03/13 10:13:33;;;;;;;;;40.25;33.00;;;;;16.28;65.50;101260.63;5055977;28;66889;-64
2024/03/13 10:16:01;;;;;;;;;1.00;0.50;;;;;16.31;65.24;101256.06;5072780;27;45318;-64
2024/03/13 10:18:27;;;;;;;;;1.00;1.00;;;;;16.42;65.17;101260.06;5072675;27;45456;-62
2024/03/13 10:21:02;;;;;;;;;1.00;0.50;;;;;16.49;64.68;101258.88;5078250;27;51399;-64
2024/03/13 10:23:29;;;;;;;;;0.25;0.25;;;;;16.52;64.41;101256.94;5072004;27;45699;-61
2024/03/13 10:25:59;;;;;;;;;0.75;0.50;;;;;16.53;64.28;101249.88;5070562;28;45367;-61
2024/03/13 10:28:26;;;;;;;;;1.25;0.50;;;;;16.57;63.68;101256.72;5080299;27;72729;-63
2024/03/13 10:30:53;;;;;;;;;0.25;0.00;;;;;16.61;63.40;101254.81;5079682;27;46136;-65
2024/03/13 10:33:19;;;;;;;;;2.00;0.00;;;;;16.71;63.72;101253.47;5071743;28;45717;-61
2024/03/13 10:35:45;;;;;;;;;0.50;0.50;;;;;16.83;63.59;101244.16;5075492;27;45643;-60
2024/03/13 10:38:14;;;;;;;;;2.50;1.50;;;;;16.95;63.63;101238.34;5072473;27;47217;-62
2024/03/13 10:40:42;;;;;;;;;2.00;1.25;;;;;17.02;63.35;101250.34;5070558;27;47128;-61
2024/03/13 10:43:11;;;;;;;;;2.50;0.50;;;;;17.04;63.32;101242.34;5088463;27;46890;-63
2024/03/13 10:45:37;;;;;;;;;3.25;1.50;;;;;17.00;63.04;101246.06;5065217;28;45553;-61
2024/03/13 10:48:06;;;;;;;;;2.50;2.00;;;;;16.88;62.81;101248.34;5066344;27;45407;-59
2024/03/13 10:50:31;;;;;;;;;4.00;1.75;;;;;16.82;63.33;101245.06;5064828;27;47103;-57
2024/03/13 10:52:57;;;;;;;;;0.50;0.50;;;;;16.78;63.17;101239.06;5066784;27;45589;-61
2024/03/13 10:55:26;;;;;;;;;0.50;0.50;;;;;16.69;62.85;101235.03;5073926;27;45668;-59
2024/03/13 10:57:51;;;;;;;;;0.75;0.75;;;;;16.63;62.90;101237.13;5063253;27;45455;-62
2024/03/13 11:00:18;;;;;;;;;0.75;0.75;;;;;16.58;62.98;101234.66;5088436;27;46231;-61
2024/03/13 11:02:43;;;;;;;;;1.50;0.50;;;;;16.59;62.84;101243.44;5078863;27;45218;-61
2024/03/13 11:05:11;;;;;;;;;0.25;0.25;;;;;16.57;62.82;101237.38;5071561;27;45265;-63
2024/03/13 11:07:37;;;;;;;;;2.00;1.25;;;;;16.49;63.06;101230.66;5071949;27;45812;-57
2024/03/13 11:10:02;;;;;;;;;3.25;2.00;;;;;16.47;63.04;101231.66;5076898;27;46495;-57
2024/03/13 11:12:31;;;;;;;;;0.50;0.50;;;;;16.42;63.14;101233.63;5065613;28;45509;-56
2024/03/13 11:15:00;;;;;;;;;1.00;1.00;;;;;16.37;63.05;101238.25;5076963;27;45461;-57
2024/03/13 11:17:26;;;;;;;;;0.50;0.50;;;;;16.30;63.16;101242.94;5073513;28;45873;-55
2024/03/13 11:20:05;;;;;;;;;2.25;1.00;;;;;16.32;63.64;101238.44;5057871;28;47171;-56
2024/03/13 11:22:33;;;;;;;;;1.25;0.50;;;;;16.32;63.35;101234.03;5074835;27;45780;-63
2024/03/13 11:25:00;;;;;;;;;0.25;0.25;;;;;16.36;63.53;101236.53;5078036;27;45379;-59
2024/03/13 11:27:27;;;;;;;;;2.50;0.50;;;;;16.48;63.26;101233.34;5065736;28;45491;-59
2024/03/13 11:29:54;;;;;;;;;1.00;1.00;;;;;16.62;63.20;101232.75;5069590;27;46257;-60
2024/03/13 11:32:20;;;;;;;;;1.00;1.00;;;;;16.73;62.64;101232.28;5072218;28;45626;-63
2024/03/13 11:34:49;;;;;;;;;2.00;1.00;;;;;16.73;62.42;101224.34;5072778;27;45380;-60
2024/03/13 11:37:15;;;;;;;;;0.50;0.50;;;;;16.77;62.39;101228.56;5076057;27;45554;-60
2024/03/13 11:39:42;;;;;;;;;1.50;0.50;;;;;16.77;62.68;101221.50;5066253;28;75443;-59